createdAt,value
2023-04-02T00:01:40.992Z,67.12
2023-04-02T00:04:25.229Z,67.48
2023-04-02T00:07:17.020Z,67.75
2023-04-02T00:09:47.815Z,67.71
2023-04-02T00:12:22.255Z,68.04
2023-04-02T00:14:57.522Z,68.17
2023-04-02T00:17:27.992Z,67.94
2023-04-02T00:20:10.409Z,68.29
2023-04-02T00:22:46.355Z,68.15
2023-04-02T00:25:19.536Z,68.12
2023-04-02T00:27:51.770Z,67.84
2023-04-02T00:30:22.461Z,67.41
2023-04-02T00:32:54.715Z,67.37
2023-04-02T00:35:30.857Z,67.64
2023-04-02T00:38:02.061Z,67.62
2023-04-02T00:40:34.364Z,67.83
2023-04-02T00:43:08.420Z,67.93
2023-04-02T00:45:40.248Z,68.24
2023-04-02T00:48:38.217Z,68.29
2023-04-02T00:51:46.379Z,68.56
2023-04-02T00:54:20.617Z,68.17
2023-04-02T00:56:55.834Z,68.49
2023-04-02T00:59:44.770Z,68.58
2023-04-02T01:02:18.740Z,68.84
2023-04-02T01:04:56.484Z,68.72
2023-04-02T01:07:47.510Z,68.78
2023-04-02T01:10:42.708Z,68.69
2023-04-02T01:13:34.253Z,68.96
2023-04-02T01:16:15.401Z,68.93
2023-04-02T01:18:51.678Z,68.91
2023-04-02T01:21:27.796Z,68.88
2023-04-02T01:24:01.925Z,68.89
2023-04-02T01:26:50.639Z,68.88
2023-04-02T01:29:42.486Z,68.84
2023-04-02T01:32:17.394Z,68.76
2023-04-02T01:34:54.092Z,68.60
2023-04-02T01:37:55.217Z,68.59
2023-04-02T01:40:43.855Z,68.56
2023-04-02T01:43:34.700Z,68.39
2023-04-02T01:46:35.853Z,68.20
2023-04-02T01:49:26.352Z,68.29
2023-04-02T01:51:58.366Z,67.88
2023-04-02T01:54:34.554Z,67.94
2023-04-02T01:57:07.048Z,68.23
2023-04-02T01:59:38.347Z,67.79
2023-04-02T02:02:14.833Z,67.72
2023-04-02T02:04:46.402Z,68.09
2023-04-02T02:07:21.827Z,67.99
2023-04-02T02:09:57.656Z,68.18
2023-04-02T02:12:29.336Z,68.11
2023-04-02T02:15:00.361Z,68.39
2023-04-02T02:17:36.149Z,67.85
2023-04-02T02:20:14.013Z,68.01
2023-04-02T02:22:50.119Z,67.96
2023-04-02T02:25:30.812Z,68.10
2023-04-02T02:28:04.314Z,68.19
2023-04-02T02:30:48.723Z,68.32
2023-04-02T02:33:28.158Z,68.16
2023-04-02T02:36:27.813Z,68.11
2023-04-02T02:39:22.201Z,67.77
2023-04-02T02:41:57.709Z,67.86
2023-04-02T02:44:39.805Z,67.75
2023-04-02T02:47:24.127Z,67.78
2023-04-02T02:49:59.170Z,67.59
2023-04-02T02:52:36.717Z,67.30
2023-04-02T02:55:36.213Z,67.32
2023-04-02T02:58:34.742Z,67.03
2023-04-02T03:01:23.377Z,67.01
2023-04-02T03:03:57.468Z,67.07
2023-04-02T03:06:28.990Z,67.24
2023-04-02T03:09:47.133Z,67.32
2023-04-02T03:12:36.139Z,67.29
2023-04-02T03:15:37.387Z,67.42
2023-04-02T03:18:18.143Z,67.28
2023-04-02T03:21:09.351Z,67.27
2023-04-02T03:23:45.807Z,67.16
2023-04-02T03:26:41.355Z,67.24
2023-04-02T03:29:42.172Z,67.29
2023-04-02T03:32:29.121Z,67.23
2023-04-02T03:35:09.087Z,67.55
2023-04-02T03:37:45.195Z,67.44
2023-04-02T03:40:28.013Z,67.61
2023-04-02T03:43:08.691Z,67.29
2023-04-02T03:45:43.545Z,67.49
2023-04-02T03:48:29.480Z,67.35
2023-04-02T03:51:07.532Z,67.37
2023-04-02T03:53:40.318Z,67.27
2023-04-02T03:56:24.764Z,67.20
2023-04-02T03:59:48.622Z,67.16
2023-04-02T04:02:19.843Z,66.59
2023-04-02T04:04:52.313Z,66.87
2023-04-02T04:07:32.131Z,67.21
2023-04-02T04:10:05.047Z,67.48
2023-04-02T04:12:43.324Z,67.49
2023-04-02T04:15:43.196Z,67.47
2023-04-02T04:18:25.771Z,67.70
2023-04-02T04:21:01.400Z,67.84
2023-04-02T04:23:43.664Z,68.51
2023-04-02T04:26:14.007Z,68.84
2023-04-02T04:29:02.453Z,68.75
2023-04-02T04:31:42.841Z,69.09
2023-04-02T04:34:19.166Z,69.34
2023-04-02T04:36:57.070Z,69.33
2023-04-02T04:39:53.466Z,69.40
2023-04-02T04:42:31.544Z,69.64
2023-04-02T04:45:29.302Z,69.40
2023-04-02T04:48:05.292Z,69.67
2023-04-02T04:50:48.372Z,69.70
2023-04-02T04:53:25.075Z,69.67
2023-04-02T04:56:18.909Z,70.08
2023-04-02T04:59:06.616Z,70.01
2023-04-02T05:01:45.391Z,69.94
2023-04-02T05:04:33.926Z,70.49
2023-04-02T05:07:33.440Z,70.57
2023-04-02T05:10:12.941Z,70.33
2023-04-02T05:12:58.931Z,70.42
2023-04-02T05:15:38.380Z,70.57
2023-04-02T05:18:36.785Z,70.64
2023-04-02T05:21:35.783Z,70.75
2023-04-02T05:24:13.839Z,70.58
2023-04-02T05:26:48.956Z,70.38
2023-04-02T05:29:29.199Z,70.46
2023-04-02T05:32:18.865Z,70.38
2023-04-02T05:34:54.192Z,70.34
2023-04-02T05:37:30.233Z,70.71
2023-04-02T05:40:15.614Z,70.70
2023-04-02T05:42:51.150Z,70.37
2023-04-02T05:45:37.469Z,70.42
2023-04-02T05:48:24.731Z,70.41
2023-04-02T05:50:58.980Z,70.38
2023-04-02T05:53:48.595Z,70.47
2023-04-02T05:56:30.677Z,70.57
2023-04-02T05:59:17.548Z,70.65
2023-04-02T06:02:19.649Z,70.98
2023-04-02T06:04:53.805Z,70.87
2023-04-02T06:07:36.785Z,71.07
2023-04-02T06:10:16.863Z,70.91
2023-04-02T06:13:01.662Z,71.51
2023-04-02T06:15:35.151Z,71.14
2023-04-02T06:18:20.478Z,71.24
2023-04-02T06:20:53.059Z,71.04
2023-04-02T06:23:48.917Z,71.27
2023-04-02T06:26:37.505Z,71.35
2023-04-02T06:29:14.359Z,71.31
2023-04-02T06:31:54.737Z,71.24
2023-04-02T06:34:29.181Z,71.17
2023-04-02T06:37:26.378Z,71.11
2023-04-02T06:40:05.429Z,71.17
2023-04-02T06:42:43.926Z,71.21
2023-04-02T06:45:27.737Z,71.14
2023-04-02T06:48:22.384Z,71.23
2023-04-02T06:51:10.958Z,70.88
2023-04-02T06:53:50.639Z,71.28
2023-04-02T06:56:29.051Z,71.16
2023-04-02T06:59:00.192Z,70.81
2023-04-02T07:01:35.810Z,70.99
2023-04-02T07:04:06.792Z,70.98
2023-04-02T07:06:42.779Z,71.08
2023-04-02T07:09:16.623Z,71.19
2023-04-02T07:11:51.236Z,71.12
2023-04-02T07:14:22.737Z,71.39
2023-04-02T07:16:53.972Z,71.47
2023-04-02T07:19:26.288Z,71.31
2023-04-02T07:21:59.668Z,71.62
2023-04-02T07:24:37.414Z,71.43
2023-04-02T07:27:07.832Z,71.34
2023-04-02T07:29:45.140Z,71.37
2023-04-02T07:32:15.908Z,71.65
2023-04-02T07:34:46.907Z,71.50
2023-04-02T07:37:18.576Z,71.60
2023-04-02T07:39:50.049Z,71.62
2023-04-02T07:42:21.781Z,71.71
2023-04-02T07:44:53.392Z,71.82
2023-04-02T07:47:24.499Z,71.75
2023-04-02T07:49:56.006Z,71.81
2023-04-02T07:52:27.253Z,71.78
2023-04-02T07:54:58.676Z,71.71
2023-04-02T07:57:29.416Z,71.49
2023-04-02T07:59:59.513Z,71.61
2023-04-02T08:02:29.720Z,71.83
2023-04-02T08:05:01.117Z,71.54
2023-04-02T08:07:31.542Z,71.84
2023-04-02T08:10:02.760Z,71.70
2023-04-02T08:12:33.937Z,71.48
2023-04-02T08:15:08.423Z,71.57
2023-04-02T08:17:38.918Z,71.67
2023-04-02T08:20:12.004Z,71.37
2023-04-02T08:22:43.200Z,71.89
2023-04-02T08:25:13.794Z,71.57
2023-04-02T08:27:45.055Z,71.42
2023-04-02T08:30:16.214Z,70.91
2023-04-02T08:32:47.744Z,71.04
2023-04-02T08:35:19.305Z,71.04
2023-04-02T08:37:50.739Z,70.89
2023-04-02T08:40:31.733Z,70.93
2023-04-02T08:43:40.441Z,70.76
2023-04-02T08:46:28.526Z,70.62
2023-04-02T08:49:04.051Z,70.70
2023-04-02T08:51:36.251Z,70.27
2023-04-02T08:54:29.033Z,70.65
2023-04-02T08:57:10.081Z,70.67
2023-04-02T08:59:46.048Z,70.72
2023-04-02T09:02:22.169Z,70.51
2023-04-02T09:04:53.224Z,70.39
2023-04-02T09:07:24.794Z,70.37
2023-04-02T09:09:55.151Z,70.37
2023-04-02T09:12:33.847Z,70.41
2023-04-02T09:15:13.347Z,70.60
2023-04-02T09:17:53.499Z,70.34
2023-04-02T09:20:31.759Z,70.33
2023-04-02T09:23:02.682Z,70.37
2023-04-02T09:25:35.754Z,70.41
2023-04-02T09:28:07.284Z,70.42
2023-04-02T09:31:05.553Z,70.59
2023-04-02T09:33:49.160Z,70.44
2023-04-02T09:36:37.211Z,70.69
2023-04-02T09:39:29.720Z,70.41
2023-04-02T09:42:05.462Z,70.15
2023-04-02T09:44:37.560Z,69.94
2023-04-02T09:47:26.340Z,70.15
2023-04-02T09:49:57.780Z,70.41
2023-04-02T09:52:32.353Z,70.16
2023-04-02T09:55:24.685Z,70.37
2023-04-02T09:58:16.728Z,70.35
2023-04-02T10:00:55.685Z,70.50
2023-04-02T10:03:34.353Z,70.51
2023-04-02T10:06:09.436Z,70.69
2023-04-02T10:08:43.704Z,70.74
2023-04-02T10:11:19.471Z,70.58
2023-04-02T10:14:19.862Z,70.53
2023-04-02T10:16:59.946Z,70.40
2023-04-02T10:19:39.034Z,70.12
2023-04-02T10:22:20.789Z,69.94
2023-04-02T10:24:53.523Z,69.51
2023-04-02T10:27:53.951Z,69.43
2023-04-02T10:30:23.689Z,68.84
2023-04-02T10:33:08.237Z,69.12
2023-04-02T10:36:03.251Z,68.59
2023-04-02T10:39:08.429Z,68.58
2023-04-02T10:42:17.964Z,68.36
2023-04-02T10:45:32.360Z,67.66
2023-04-02T10:48:25.895Z,62.42
2023-04-02T10:51:19.832Z,51.82
2023-04-02T10:53:56.273Z,48.48
2023-04-02T10:56:31.401Z,46.86
2023-04-02T10:59:38.264Z,46.78
2023-04-02T11:02:29.722Z,45.71
2023-04-02T11:05:05.388Z,47.18
2023-04-02T11:07:41.492Z,50.05
2023-04-02T11:10:21.860Z,50.15
2023-04-02T11:13:03.679Z,51.18
2023-04-02T11:15:37.056Z,50.82
2023-04-02T11:18:09.691Z,52.98
2023-04-02T11:21:02.336Z,50.61
2023-04-02T11:23:37.992Z,50.44
2023-04-02T11:26:38.844Z,50.06
2023-04-02T11:29:23.170Z,49.34
2023-04-02T11:32:15.038Z,49.57
2023-04-02T11:35:03.428Z,49.42
2023-04-02T11:37:45.937Z,49.60
2023-04-02T11:40:16.949Z,47.81
2023-04-02T11:42:51.428Z,47.54
2023-04-02T11:45:25.875Z,48.62
2023-04-02T11:48:09.371Z,47.54
2023-04-02T11:50:46.224Z,49.56
2023-04-02T11:53:18.800Z,46.15
2023-04-02T11:56:17.060Z,48.11
2023-04-02T11:59:00.994Z,45.75
2023-04-02T12:01:42.830Z,46.06
2023-04-02T12:04:32.272Z,46.46
2023-04-02T12:07:23.289Z,46.81
2023-04-02T12:09:56.936Z,44.43
2023-04-02T12:12:41.661Z,46.98
2023-04-02T12:15:46.317Z,45.96
2023-04-02T12:18:24.964Z,47.20
2023-04-02T12:20:59.628Z,45.01
2023-04-02T12:23:35.292Z,45.48
2023-04-02T12:26:09.300Z,46.84
2023-04-02T12:28:40.244Z,44.95
2023-04-02T12:31:15.905Z,44.59
2023-04-02T12:33:47.201Z,45.44
2023-04-02T12:36:24.963Z,43.41
2023-04-02T12:39:01.977Z,45.64
2023-04-02T12:41:38.512Z,45.53
2023-04-02T12:44:19.939Z,43.49
2023-04-02T12:46:52.770Z,43.78
2023-04-02T12:49:33.819Z,42.97
2023-04-02T12:52:12.199Z,41.01
2023-04-02T12:54:54.766Z,41.95
2023-04-02T12:57:34.693Z,42.92
2023-04-02T13:00:25.965Z,43.36
2023-04-02T13:03:12.491Z,41.67
2023-04-02T13:05:55.153Z,40.02
2023-04-02T13:08:28.730Z,41.75
2023-04-02T13:11:05.624Z,43.51
2023-04-02T13:13:39.420Z,41.18
2023-04-02T13:16:22.753Z,42.81
2023-04-02T13:18:53.695Z,41.67
2023-04-02T13:21:29.509Z,39.90
2023-04-02T13:23:59.772Z,39.12
2023-04-02T13:26:31.202Z,41.07
2023-04-02T13:29:24.313Z,40.78
2023-04-02T13:31:58.265Z,39.05
2023-04-02T13:34:30.489Z,39.10
2023-04-02T13:37:01.024Z,40.96
2023-04-02T13:39:32.601Z,37.78
2023-04-02T13:42:05.718Z,39.58
2023-04-02T13:44:42.309Z,43.70
2023-04-02T13:47:18.412Z,41.32
2023-04-02T13:49:50.136Z,40.20
2023-04-02T13:52:21.049Z,43.20
2023-04-02T13:54:56.611Z,39.38
2023-04-02T13:57:28.035Z,46.38
2023-04-02T14:00:00.308Z,46.44
2023-04-02T14:02:31.626Z,46.89
2023-04-02T14:05:23.014Z,47.75
2023-04-02T14:08:05.281Z,47.85
2023-04-02T14:10:38.921Z,45.29
2023-04-02T14:13:22.978Z,49.90
2023-04-02T14:16:50.334Z,46.75
2023-04-02T14:19:39.392Z,48.75
2023-04-02T14:22:31.577Z,47.36
2023-04-02T14:25:27.928Z,47.54
2023-04-02T14:28:24.323Z,47.19
2023-04-02T14:31:06.529Z,48.17
2023-04-02T14:33:54.981Z,49.45
2023-04-02T14:36:36.970Z,48.34
2023-04-02T14:39:28.916Z,49.21
2023-04-02T14:42:45.092Z,48.90
2023-04-02T14:45:44.491Z,48.57
2023-04-02T14:48:46.648Z,48.26
2023-04-02T14:51:47.172Z,49.17
2023-04-02T14:54:51.430Z,49.35
2023-04-02T14:57:28.507Z,48.30
2023-04-02T15:00:19.509Z,47.10
2023-04-02T15:03:07.638Z,49.26
2023-04-02T15:05:55.754Z,48.78
2023-04-02T15:08:39.627Z,51.40
2023-04-02T15:11:22.752Z,50.38
2023-04-02T15:14:14.358Z,49.67
2023-04-02T15:16:46.517Z,49.74
2023-04-02T15:19:19.540Z,51.24
2023-04-02T15:22:06.081Z,48.37
2023-04-02T15:25:07.424Z,50.63
2023-04-02T15:28:03.638Z,51.82
2023-04-02T15:30:40.264Z,52.05
2023-04-02T15:33:32.529Z,50.52
2023-04-02T15:36:22.570Z,50.10
2023-04-02T15:39:33.389Z,50.59
2023-04-02T15:42:20.408Z,50.37
2023-04-02T15:45:02.368Z,51.24
2023-04-02T15:47:47.622Z,51.27
2023-04-02T15:50:43.920Z,51.08
2023-04-02T15:53:41.497Z,51.68
2023-04-02T15:56:37.472Z,50.99
2023-04-02T15:59:39.872Z,51.40
2023-04-02T16:02:45.996Z,52.13
2023-04-02T16:05:32.661Z,52.86
2023-04-02T16:08:58.432Z,52.17
2023-04-02T16:11:29.249Z,50.56
2023-04-02T16:14:29.941Z,51.52
2023-04-02T16:17:21.671Z,50.17
2023-04-02T16:20:26.437Z,51.11
2023-04-02T16:23:07.822Z,51.59
2023-04-02T16:25:49.888Z,50.23
2023-04-02T16:28:31.072Z,52.38
2023-04-02T16:31:10.605Z,51.17
2023-04-02T16:34:13.629Z,51.89
2023-04-02T16:36:57.394Z,50.04
2023-04-02T16:39:41.602Z,51.76
2023-04-02T16:42:34.037Z,51.33
2023-04-02T16:45:29.552Z,51.53
2023-04-02T16:47:59.596Z,50.74
2023-04-02T16:50:55.415Z,50.81
2023-04-02T16:54:03.881Z,51.73
2023-04-02T16:56:56.318Z,51.11
2023-04-02T16:59:37.173Z,51.30
2023-04-02T17:02:29.229Z,51.37
2023-04-02T17:05:17.624Z,52.96
2023-04-02T17:07:56.743Z,49.89
2023-04-02T17:10:41.791Z,50.69
2023-04-02T17:13:37.172Z,51.08
2023-04-02T17:16:16.489Z,51.84
2023-04-02T17:18:50.439Z,51.85
2023-04-02T17:21:28.502Z,50.08
2023-04-02T17:24:01.941Z,50.11
2023-04-02T17:26:37.666Z,50.13
2023-04-02T17:29:19.378Z,51.96
2023-04-02T17:31:51.199Z,51.37
2023-04-02T17:34:26.386Z,51.89
2023-04-02T17:37:18.762Z,50.92
2023-04-02T17:39:54.595Z,51.52
2023-04-02T17:42:49.486Z,52.55
2023-04-02T17:45:31.567Z,52.92
2023-04-02T17:48:08.525Z,54.60
2023-04-02T17:51:03.072Z,52.62
2023-04-02T17:54:01.895Z,53.54
2023-04-02T17:56:48.148Z,52.90
2023-04-02T17:59:25.046Z,55.14
2023-04-02T18:02:25.272Z,54.30
2023-04-02T18:05:40.713Z,53.41
2023-04-02T18:08:42.634Z,53.14
2023-04-02T18:11:36.132Z,53.54
2023-04-02T18:14:46.519Z,53.35
2023-04-02T18:17:19.957Z,53.78
2023-04-02T18:20:04.765Z,53.82
2023-04-02T18:22:56.606Z,56.08
2023-04-02T18:25:31.297Z,53.79
2023-04-02T18:28:07.577Z,54.49
2023-04-02T18:31:02.269Z,52.89
2023-04-02T18:34:02.873Z,55.51
2023-04-02T18:36:58.877Z,54.55
2023-04-02T18:40:07.184Z,54.10
2023-04-02T18:42:55.511Z,53.23
2023-04-02T18:45:43.996Z,54.65
2023-04-02T18:48:35.293Z,55.21
2023-04-02T18:51:07.929Z,52.76
2023-04-02T18:53:38.735Z,54.57
2023-04-02T18:56:15.732Z,54.43
2023-04-02T18:58:58.771Z,56.17
2023-04-02T19:01:50.412Z,55.45
2023-04-02T19:04:28.017Z,54.99
2023-04-02T19:07:13.831Z,53.80
2023-04-02T19:09:49.045Z,54.56
2023-04-02T19:12:21.909Z,53.86
2023-04-02T19:14:52.873Z,53.68
2023-04-02T19:17:43.700Z,54.10
2023-04-02T19:20:24.219Z,54.26
2023-04-02T19:23:36.481Z,54.28
2023-04-02T19:26:15.226Z,56.30
2023-04-02T19:28:55.453Z,56.85
2023-04-02T19:31:37.784Z,54.53
2023-04-02T19:34:29.635Z,55.20
2023-04-02T19:37:33.838Z,56.49
2023-04-02T19:40:28.585Z,55.36
2023-04-02T19:43:00.414Z,56.37
2023-04-02T19:45:40.574Z,56.42
2023-04-02T19:48:25.651Z,57.29
2023-04-02T19:50:56.893Z,57.71
2023-04-02T19:53:27.758Z,56.22
2023-04-02T19:56:00.430Z,59.15
2023-04-02T19:58:38.083Z,57.77
2023-04-02T20:01:09.598Z,59.22
2023-04-02T20:03:41.129Z,59.58
2023-04-02T20:06:12.384Z,56.59
2023-04-02T20:08:42.976Z,55.16
2023-04-02T20:11:14.420Z,56.14
2023-04-02T20:13:45.097Z,58.32
2023-04-02T20:16:15.968Z,58.79
2023-04-02T20:18:47.162Z,53.98
2023-04-02T20:21:18.612Z,57.99
2023-04-02T20:23:50.687Z,56.92
2023-04-02T20:26:20.894Z,58.02
2023-04-02T20:28:51.504Z,61.36
2023-04-02T20:31:21.790Z,59.62
2023-04-02T20:33:55.963Z,58.91
2023-04-02T20:36:26.671Z,59.00
2023-04-02T20:38:58.010Z,60.34
2023-04-02T20:41:29.474Z,59.14
2023-04-02T20:44:00.027Z,59.82
2023-04-02T20:46:30.352Z,60.39
2023-04-02T20:49:01.234Z,60.88
2023-04-02T20:51:32.378Z,60.20
2023-04-02T20:54:04.285Z,58.91
2023-04-02T20:56:35.719Z,60.70
2023-04-02T20:59:06.779Z,61.83
2023-04-02T21:01:36.937Z,59.33
2023-04-02T21:04:07.496Z,61.94
2023-04-02T21:06:40.710Z,61.38
2023-04-02T21:09:17.892Z,60.73
2023-04-02T21:11:48.847Z,59.38
2023-04-02T21:14:20.190Z,62.37
2023-04-02T21:16:50.664Z,61.02
2023-04-02T21:19:20.738Z,60.10
2023-04-02T21:21:51.057Z,60.53
2023-04-02T21:24:21.814Z,61.92
2023-04-02T21:26:52.638Z,62.66
2023-04-02T21:29:22.689Z,61.64
2023-04-02T21:31:54.800Z,64.06
2023-04-02T21:34:25.437Z,61.79
2023-04-02T21:36:56.437Z,62.39
2023-04-02T21:39:27.835Z,62.81
2023-04-02T21:41:58.842Z,61.05
2023-04-02T21:44:30.088Z,64.57
2023-04-02T21:47:01.137Z,62.12
2023-04-02T21:49:32.009Z,60.52
2023-04-02T21:52:03.453Z,62.24
2023-04-02T21:54:33.968Z,62.78
2023-04-02T21:57:05.482Z,64.36
2023-04-02T21:59:36.267Z,62.30
2023-04-02T22:02:06.528Z,63.65
2023-04-02T22:04:36.823Z,64.26
2023-04-02T22:07:07.384Z,64.01
2023-04-02T22:09:37.835Z,63.07
2023-04-02T22:12:10.133Z,63.68
2023-04-02T22:14:40.387Z,64.57
2023-04-02T22:17:11.169Z,63.94
2023-04-02T22:19:42.567Z,63.16
2023-04-02T22:22:13.747Z,63.13
2023-04-02T22:24:44.525Z,63.63
2023-04-02T22:27:15.709Z,63.95
2023-04-02T22:29:47.962Z,63.40
2023-04-02T22:32:18.344Z,63.20
2023-04-02T22:34:48.446Z,63.11
2023-04-02T22:37:18.953Z,62.67
2023-04-02T22:39:50.768Z,63.75
2023-04-02T22:42:21.029Z,63.22
2023-04-02T22:44:52.350Z,64.03
2023-04-02T22:47:23.908Z,63.16
2023-04-02T22:49:54.216Z,62.66
2023-04-02T22:52:25.100Z,63.49
2023-04-02T22:54:56.279Z,63.88
2023-04-02T22:57:26.978Z,62.47
2023-04-02T22:59:58.243Z,64.79
2023-04-02T23:02:29.261Z,64.90
2023-04-02T23:04:59.909Z,63.75
2023-04-02T23:07:30.907Z,65.82
2023-04-02T23:10:03.815Z,64.85
2023-04-02T23:12:34.891Z,66.68
2023-04-02T23:15:08.273Z,65.16
2023-04-02T23:17:39.860Z,64.43
2023-04-02T23:20:12.410Z,63.86
2023-04-02T23:22:43.453Z,65.59
2023-04-02T23:25:14.354Z,65.40
2023-04-02T23:27:44.576Z,66.78
2023-04-02T23:30:15.605Z,66.04
2023-04-02T23:32:45.996Z,65.42
2023-04-02T23:35:16.118Z,67.51
2023-04-02T23:37:47.124Z,65.77
2023-04-02T23:40:18.165Z,66.18
2023-04-02T23:42:48.500Z,67.97
2023-04-02T23:45:20.510Z,65.02
2023-04-02T23:47:52.093Z,65.27
2023-04-02T23:50:22.714Z,65.40
2023-04-02T23:52:52.878Z,65.81
2023-04-02T23:55:23.285Z,64.72
2023-04-02T23:57:53.383Z,65.37
